Time;durP1;ratioP1;P1;durP2;ratioP2;P2;SDS_P1;SDS_P2;PMS_P1;PMS_P2;Temp;Humidity;BMP_temperature;BMP_pressure;BME280_temperature;BME280_humidity;BME280_pressure;Samples;Min_cycle;Max_cycle;Signal;HPM_P1;HPM_P2
2022/10/18 00:02:56;;;;;;;;;;;;;;;13.46;100.00;102114.63;20718254;28;19925;-63
2022/10/18 00:13:18;;;;;;;;;;;;;;;13.49;100.00;102119.69;20746282;28;19933;-64
2022/10/18 00:23:40;;;;;;;;;;;;;;;13.55;100.00;102114.97;20775676;28;19926;-63
2022/10/18 00:34:03;;;;;;;;;;;;;;;13.41;100.00;102119.25;20751959;28;19955;-63
2022/10/18 00:44:24;;;;;;;;;;;;;;;13.27;100.00;102108.72;20752730;28;19929;-63
2022/10/18 00:54:47;;;;;;;;;;;;;;;13.25;100.00;102125.44;20733848;28;20341;-63
2022/10/18 01:05:09;;;;;;;;;;;;;;;13.18;100.00;102138.03;20743248;28;19930;-63
2022/10/18 01:15:35;;;;;;;;;;;;;;;13.14;100.00;102136.50;20715665;28;19951;-63
2022/10/18 01:26:15;;;;;;;;;;;;;;;13.05;100.00;102138.75;20825790;28;19974;-63
2022/10/18 01:36:39;;;;;;;;;;;;;;;13.00;100.00;102143.41;20787700;28;19926;-63
2022/10/18 01:47:02;;;;;;;;;;;;;;;12.99;100.00;102129.47;20726035;28;20017;-63
2022/10/18 01:57:27;;;;;;;;;;;;;;;12.88;100.00;102126.56;20718965;28;19927;-63
2022/10/18 02:07:51;;;;;;;;;;;;;;;13.07;100.00;102122.06;20744145;28;19926;-63
2022/10/18 02:18:35;;;;;;;;;;;;;;;12.98;100.00;102101.59;20825263;28;19979;-63
2022/10/18 02:28:56;;;;;;;;;;;;;;;12.94;100.00;102110.56;20715609;28;19979;-63
2022/10/18 02:39:33;;;;;;;;;;;;;;;13.08;100.00;102097.56;20762319;28;19981;-63
2022/10/18 02:49:54;;;;;;;;;;;;;;;12.97;100.00;102107.75;20731432;28;20385;-63
2022/10/18 03:00:15;;;;;;;;;;;;;;;12.78;100.00;102114.03;20727460;28;19930;-63
2022/10/18 03:10:37;;;;;;;;;;;;;;;12.80;100.00;102106.94;20758554;28;20544;-63
2022/10/18 03:21:02;;;;;;;;;;;;;;;12.63;100.00;102100.00;20748158;28;19928;-63
2022/10/18 03:31:23;;;;;;;;;;;;;;;12.60;100.00;102115.84;20729382;28;20333;-63
2022/10/18 03:41:45;;;;;;;;;;;;;;;12.43;100.00;102111.56;20768107;28;20389;-63
2022/10/18 03:52:06;;;;;;;;;;;;;;;12.36;100.00;102116.28;20796657;28;20365;-63
2022/10/18 04:02:27;;;;;;;;;;;;;;;12.31;100.00;102122.66;20750366;28;20524;-63
2022/10/18 04:12:49;;;;;;;;;;;;;;;12.23;100.00;102117.84;20729555;28;19946;-63
2022/10/18 04:23:10;;;;;;;;;;;;;;;12.31;100.00;102096.53;20737420;28;20642;-63
2022/10/18 04:33:32;;;;;;;;;;;;;;;12.30;100.00;102094.81;20729575;28;20538;-63
2022/10/18 04:43:53;;;;;;;;;;;;;;;12.19;100.00;102105.00;20770503;28;20451;-63
2022/10/18 04:54:14;;;;;;;;;;;;;;;12.10;100.00;102108.06;20758388;28;19929;-63
2022/10/18 05:04:36;;;;;;;;;;;;;;;12.17;100.00;102099.00;20727406;28;19926;-63
2022/10/18 05:14:57;;;;;;;;;;;;;;;11.93;100.00;102105.47;20738471;28;19926;-63
2022/10/18 05:25:19;;;;;;;;;;;;;;;12.02;100.00;102111.06;20797819;28;19970;-63
2022/10/18 05:35:40;;;;;;;;;;;;;;;12.06;100.00;102117.00;20765110;28;19934;-62
2022/10/18 05:46:03;;;;;;;;;;;;;;;12.00;100.00;102128.59;20762875;28;19978;-62
2022/10/18 05:56:24;;;;;;;;;;;;;;;11.98;100.00;102140.03;20718864;28;20386;-63
2022/10/18 06:06:45;;;;;;;;;;;;;;;12.01;100.00;102129.44;20717931;28;19932;-62
2022/10/18 06:17:07;;;;;;;;;;;;;;;11.79;100.00;102147.94;20803611;28;19981;-63
2022/10/18 06:27:30;;;;;;;;;;;;;;;11.62;100.00;102152.28;20726307;28;19951;-62
2022/10/18 06:37:52;;;;;;;;;;;;;;;11.60;100.00;102172.41;20731401;28;19929;-62
2022/10/18 06:48:14;;;;;;;;;;;;;;;11.70;100.00;102186.72;20714703;28;19977;-63
2022/10/18 06:58:35;;;;;;;;;;;;;;;11.59;100.00;102199.44;20713585;28;20297;-62
2022/10/18 07:08:57;;;;;;;;;;;;;;;11.42;100.00;102208.94;20721218;28;20424;-63
2022/10/18 07:19:18;;;;;;;;;;;;;;;11.33;100.00;102201.53;20799336;28;19934;-63
2022/10/18 07:29:40;;;;;;;;;;;;;;;11.57;100.00;102222.16;20714081;28;20617;-62
2022/10/18 07:40:01;;;;;;;;;;;;;;;11.59;100.00;102236.84;20825986;28;20394;-61
2022/10/18 07:50:23;;;;;;;;;;;;;;;11.54;100.00;102228.38;20746317;28;20496;-62
2022/10/18 08:00:44;;;;;;;;;;;;;;;11.69;100.00;102221.59;20763493;28;19930;-62
2022/10/18 08:11:10;;;;;;;;;;;;;;;11.42;100.00;102232.44;20819100;28;19981;-64
2022/10/18 08:21:31;;;;;;;;;;;;;;;11.72;100.00;102227.50;20731029;28;19930;-62
2022/10/18 08:31:52;;;;;;;;;;;;;;;11.60;100.00;102229.88;20796495;28;19929;-62
2022/10/18 08:42:32;;;;;;;;;;;;;;;11.68;100.00;102218.16;20737155;28;19937;-64
2022/10/18 08:53:04;;;;;;;;;;;;;;;11.57;100.00;102243.88;20834743;28;20156;-64
2022/10/18 09:03:44;;;;;;;;;;;;;;;11.82;100.00;102264.50;20728751;28;19974;-63
2022/10/18 09:14:08;;;;;;;;;;;;;;;11.73;100.00;102257.09;20755759;28;20311;-64
2022/10/18 09:24:36;;;;;;;;;;;;;;;11.68;100.00;102253.84;20803798;28;19929;-64
2022/10/18 09:35:12;;;;;;;;;;;;;;;11.94;100.00;102263.91;20800186;28;20452;-63
2022/10/18 09:45:36;;;;;;;;;;;;;;;12.01;100.00;102289.69;20737680;28;19938;-63
2022/10/18 09:55:58;;;;;;;;;;;;;;;11.97;100.00;102297.75;20719727;28;19926;-63
2022/10/18 10:06:29;;;;;;;;;;;;;;;12.20;100.00;102287.91;20760227;28;19933;-63
2022/10/18 10:16:54;;;;;;;;;;;;;;;12.26;100.00;102292.00;20729092;28;19926;-63
2022/10/18 10:27:18;;;;;;;;;;;;;;;12.85;100.00;102304.69;20767044;28;19982;-63
2022/10/18 10:37:40;;;;;;;;;;;;;;;12.72;100.00;102311.44;20718236;28;19925;-64
2022/10/18 10:48:03;;;;;;;;;;;;;;;12.89;100.00;102292.28;20760510;28;19979;-63
2022/10/18 10:58:26;;;;;;;;;;;;;;;13.23;100.00;102303.63;20797194;28;19982;-64
2022/10/18 11:08:50;;;;;;;;;;;;;;;13.42;100.00;102304.31;20726286;28;19924;-64
2022/10/18 11:19:35;;;;;;;;;;;;;;;13.67;100.00;102307.34;20720758;28;19930;-64
2022/10/18 11:29:56;;;;;;;;;;;;;;;14.15;100.00;102315.19;20699007;28;19968;-64
2022/10/18 11:40:27;;;;;;;;;;;;;;;13.87;97.10;102322.84;20763869;28;20327;-64
2022/10/18 11:50:51;;;;;;;;;;;;;;;13.95;97.35;102312.78;20777875;28;20327;-64
2022/10/18 12:01:19;;;;;;;;;;;;;;;14.12;94.89;102315.31;20734562;28;20286;-64
2022/10/18 12:11:52;;;;;;;;;;;;;;;14.12;95.24;102310.06;20736858;28;19926;-65
2022/10/18 12:22:21;;;;;;;;;;;;;;;14.06;92.74;102315.66;20735087;28;20323;-64
2022/10/18 12:32:43;;;;;;;;;;;;;;;14.21;90.39;102306.97;20754294;28;19926;-64
2022/10/18 12:43:25;;;;;;;;;;;;;;;14.98;88.12;102312.91;20770397;28;19960;-64
2022/10/18 12:53:50;;;;;;;;;;;;;;;14.38;92.12;102312.13;20727114;28;19955;-66
2022/10/18 13:04:32;;;;;;;;;;;;;;;14.72;87.21;102305.69;20739096;28;19985;-64
2022/10/18 13:15:04;;;;;;;;;;;;;;;14.63;86.15;102311.47;20734193;28;19971;-66
2022/10/18 13:26:12;;;;;;;;;;;;;;;14.43;87.29;102306.53;20726478;28;19932;-64
2022/10/18 13:36:33;;;;;;;;;;;;;;;14.34;88.22;102305.34;20721246;28;19932;-64
2022/10/18 13:46:54;;;;;;;;;;;;;;;14.54;87.01;102321.66;20733736;28;19933;-67
2022/10/18 13:57:22;;;;;;;;;;;;;;;14.48;86.64;102309.72;20734742;28;20348;-65
2022/10/18 14:07:44;;;;;;;;;;;;;;;14.92;83.19;102321.13;20792981;28;19933;-65
2022/10/18 14:18:19;;;;;;;;;;;;;;;15.18;83.08;102328.31;20729983;28;20018;-65
2022/10/18 14:28:40;;;;;;;;;;;;;;;14.67;86.87;102331.38;20722664;28;19951;-66
2022/10/18 14:39:22;;;;;;;;;;;;;;;14.47;85.44;102339.53;20738022;28;19929;-65
2022/10/18 14:49:44;;;;;;;;;;;;;;;14.64;84.94;102336.81;20726561;28;19955;-64
2022/10/18 15:00:07;;;;;;;;;;;;;;;14.50;85.49;102338.50;20725474;28;19993;-65
2022/10/18 15:10:31;;;;;;;;;;;;;;;14.35;86.32;102330.66;20721055;28;20281;-65
2022/10/18 15:21:11;;;;;;;;;;;;;;;14.15;86.26;102336.16;20754127;28;19987;-65
2022/10/18 15:31:36;;;;;;;;;;;;;;;13.92;85.62;102331.31;20752433;28;19929;-65
2022/10/18 15:42:01;;;;;;;;;;;;;;;13.80;85.58;102334.59;20737255;28;19986;-65
2022/10/18 15:52:29;;;;;;;;;;;;;;;13.67;86.12;102328.31;20716206;28;19933;-64
2022/10/18 16:02:57;;;;;;;;;;;;;;;13.56;86.93;102325.41;20803628;28;20393;-66
2022/10/18 16:13:19;;;;;;;;;;;;;;;13.37;86.60;102316.84;20787446;28;20052;-64
2022/10/18 16:23:40;;;;;;;;;;;;;;;13.13;88.12;102325.94;20746159;28;20589;-65
2022/10/18 16:34:03;;;;;;;;;;;;;;;13.05;89.81;102338.59;20818531;28;20414;-64
2022/10/18 16:44:24;;;;;;;;;;;;;;;12.83;90.52;102358.88;20776709;28;19933;-64
2022/10/18 16:54:45;;;;;;;;;;;;;;;12.76;91.81;102362.72;20732977;28;19934;-65
2022/10/18 17:05:07;;;;;;;;;;;;;;;12.67;93.12;102365.78;20812876;28;19934;-64
2022/10/18 17:15:28;;;;;;;;;;;;;;;12.57;94.82;102382.84;20760045;28;19929;-64
2022/10/18 17:25:55;;;;;;;;;;;;;;;12.72;94.91;102384.72;20776749;28;19967;-64
2022/10/18 17:36:30;;;;;;;;;;;;;;;12.76;94.10;102398.50;20804782;28;19930;-65
2022/10/18 17:46:51;;;;;;;;;;;;;;;12.70;92.18;102407.50;20748387;28;20447;-65
2022/10/18 17:57:13;;;;;;;;;;;;;;;12.69;92.20;102421.50;20745009;28;20336;-64
2022/10/18 18:07:34;;;;;;;;;;;;;;;12.53;94.42;102412.69;20763092;28;19933;-64
2022/10/18 18:17:55;;;;;;;;;;;;;;;12.61;92.37;102425.41;20744725;28;19937;-64
2022/10/18 18:28:18;;;;;;;;;;;;;;;12.52;91.78;102425.84;20769741;27;19929;-64
2022/10/18 18:38:41;;;;;;;;;;;;;;;12.57;88.42;102443.00;20742765;27;20286;-64
2022/10/18 18:49:04;;;;;;;;;;;;;;;12.60;89.41;102442.88;20819602;28;19925;-64
2022/10/18 18:59:25;;;;;;;;;;;;;;;12.60;90.22;102444.63;20739164;28;19933;-64
2022/10/18 19:09:49;;;;;;;;;;;;;;;12.52;90.10;102446.78;20724764;28;19925;-64
2022/10/18 19:20:11;;;;;;;;;;;;;;;12.51;90.53;102456.41;20822128;28;19979;-64
2022/10/18 19:30:32;;;;;;;;;;;;;;;12.45;91.46;102465.44;20796397;28;19925;-65
2022/10/18 19:40:54;;;;;;;;;;;;;;;12.31;91.64;102452.16;20719132;28;19925;-64
2022/10/18 19:51:15;;;;;;;;;;;;;;;12.48;92.40;102440.84;20720089;28;19987;-65
2022/10/18 20:01:44;;;;;;;;;;;;;;;12.47;90.89;102445.28;20757002;28;20299;-64
2022/10/18 20:12:05;;;;;;;;;;;;;;;12.36;89.41;102448.41;20743740;28;19928;-64
2022/10/18 20:22:27;;;;;;;;;;;;;;;12.46;90.52;102452.28;20809800;28;19983;-64
2022/10/18 20:32:50;;;;;;;;;;;;;;;12.25;90.73;102452.41;20808142;28;19947;-65
2022/10/18 20:43:11;;;;;;;;;;;;;;;12.25;90.94;102463.72;20801426;28;19986;-64
2022/10/18 20:53:33;;;;;;;;;;;;;;;12.28;91.81;102453.16;20726335;28;19925;-64
2022/10/18 21:03:56;;;;;;;;;;;;;;;12.04;92.73;102463.84;20740490;28;19986;-64
2022/10/18 21:14:19;;;;;;;;;;;;;;;12.13;94.28;102466.03;20737374;28;19989;-64
2022/10/18 21:24:41;;;;;;;;;;;;;;;11.97;93.78;102472.88;20731028;28;20282;-65
2022/10/18 21:35:02;;;;;;;;;;;;;;;11.73;95.70;102461.72;20743935;28;19933;-64
2022/10/18 21:45:24;;;;;;;;;;;;;;;11.53;96.46;102468.69;20733986;28;19930;-64
2022/10/18 21:55:47;;;;;;;;;;;;;;;11.37;98.86;102458.94;20732891;28;19925;-65
2022/10/18 22:06:12;;;;;;;;;;;;;;;11.23;100.00;102449.06;20756999;28;20304;-65
2022/10/18 22:16:34;;;;;;;;;;;;;;;10.91;100.00;102444.34;20801254;28;20009;-65
2022/10/18 22:26:56;;;;;;;;;;;;;;;10.54;100.00;102436.25;20728684;28;19972;-65
2022/10/18 22:37:17;;;;;;;;;;;;;;;10.47;100.00;102430.50;20800889;28;21119;-64
2022/10/18 22:47:38;;;;;;;;;;;;;;;10.53;100.00;102426.72;20772193;28;19933;-64
2022/10/18 22:58:00;;;;;;;;;;;;;;;10.33;100.00;102423.19;20720526;28;19938;-65
2022/10/18 23:08:21;;;;;;;;;;;;;;;10.21;100.00;102435.81;20732592;28;20149;-64
2022/10/18 23:18:43;;;;;;;;;;;;;;;10.50;100.00;102446.00;20754945;28;19925;-64
2022/10/18 23:29:04;;;;;;;;;;;;;;;10.59;100.00;102442.13;20741153;28;20450;-64
2022/10/18 23:39:26;;;;;;;;;;;;;;;10.48;100.00;102440.00;20728698;28;20027;-64
2022/10/18 23:49:47;;;;;;;;;;;;;;;10.48;100.00;102435.63;20781559;28;19925;-64
